createdAt,value
2022-10-17T00:00:46.287Z,101122.75
2022-10-17T00:03:49.045Z,101117.41
2022-10-17T00:06:51.667Z,101113.91
2022-10-17T00:09:54.373Z,101113.13
2022-10-17T00:12:57.432Z,101096.94
2022-10-17T00:16:01.535Z,101095.22
2022-10-17T00:19:04.205Z,101093.50
2022-10-17T00:22:06.819Z,101096.94
2022-10-17T00:25:09.978Z,101088.81
2022-10-17T00:28:13.159Z,101094.03
2022-10-17T00:31:18.097Z,101080.81
2022-10-17T00:34:20.754Z,101090.63
2022-10-17T00:37:23.445Z,101089.91
2022-10-17T00:40:26.132Z,101089.91
2022-10-17T00:43:29.741Z,101099.59
2022-10-17T00:46:34.694Z,101109.94
2022-10-17T00:49:38.031Z,101098.59
2022-10-17T00:52:41.468Z,101097.13
2022-10-17T00:55:46.756Z,101103.50
2022-10-17T00:58:49.412Z,101106.28
2022-10-17T01:01:57.891Z,101102.94
2022-10-17T01:05:00.680Z,101099.53
2022-10-17T01:08:03.614Z,101096.00
2022-10-17T01:11:12.549Z,101087.28
2022-10-17T01:14:18.879Z,101097.19
2022-10-17T01:17:30.393Z,101098.03
2022-10-17T01:20:47.928Z,101091.09
2022-10-17T01:24:02.008Z,101094.59
2022-10-17T01:27:22.449Z,101098.34
2022-10-17T01:30:43.701Z,101093.97
2022-10-17T01:33:54.960Z,101094.09
2022-10-17T01:37:02.279Z,101096.81
2022-10-17T01:40:10.556Z,101092.47
2022-10-17T01:43:17.484Z,101091.72
2022-10-17T01:46:23.870Z,101095.31
2022-10-17T01:49:28.749Z,101104.25
2022-10-17T01:52:34.743Z,101094.53
2022-10-17T01:55:39.291Z,101103.59
2022-10-17T01:58:43.800Z,101101.03
2022-10-17T02:01:49.016Z,101109.03
2022-10-17T02:04:53.576Z,101110.00
2022-10-17T02:07:56.297Z,101108.38
2022-10-17T02:11:01.956Z,101114.66
2022-10-17T02:14:15.737Z,101112.94
2022-10-17T02:17:22.820Z,101106.13
2022-10-17T02:20:26.556Z,101111.47
2022-10-17T02:23:33.741Z,101116.00
2022-10-17T02:26:39.891Z,101116.97
2022-10-17T02:29:47.509Z,101117.94
2022-10-17T02:32:54.327Z,101124.00
2022-10-17T02:35:59.110Z,101128.50
2022-10-17T02:39:02.731Z,101130.19
2022-10-17T02:42:07.652Z,101136.38
2022-10-17T02:45:11.124Z,101147.13
2022-10-17T02:48:17.670Z,101146.28
2022-10-17T02:51:25.181Z,101141.91
2022-10-17T02:54:32.918Z,101148.31
2022-10-17T02:57:38.127Z,101150.88
2022-10-17T03:00:41.340Z,101163.34
2022-10-17T03:03:45.481Z,101168.66
2022-10-17T03:06:49.034Z,101168.66
2022-10-17T03:09:51.662Z,101179.38
2022-10-17T03:12:54.304Z,101173.41
2022-10-17T03:15:57.365Z,101170.75
2022-10-17T03:19:01.547Z,101174.38
2022-10-17T03:22:04.170Z,101175.34
2022-10-17T03:25:07.065Z,101180.72
2022-10-17T03:28:10.566Z,101179.03
2022-10-17T03:31:15.498Z,101169.53
2022-10-17T03:34:19.568Z,101164.22
2022-10-17T03:37:22.220Z,101178.50
2022-10-17T03:40:24.896Z,101180.31
2022-10-17T03:43:27.566Z,101184.00
2022-10-17T03:46:30.288Z,101181.44
2022-10-17T03:49:34.340Z,101173.44
2022-10-17T03:52:36.993Z,101165.47
2022-10-17T03:55:39.713Z,101174.41
2022-10-17T03:58:42.828Z,101173.56
2022-10-17T04:01:45.632Z,101165.47
2022-10-17T04:04:49.703Z,101153.00
2022-10-17T04:07:52.357Z,101162.06
2022-10-17T04:10:58.911Z,101160.13
2022-10-17T04:14:01.621Z,101161.19
2022-10-17T04:17:04.349Z,101164.03
2022-10-17T04:20:09.308Z,101163.06
2022-10-17T04:23:11.925Z,101166.69
2022-10-17T04:26:14.629Z,101173.84
2022-10-17T04:29:17.290Z,101173.84
2022-10-17T04:32:19.984Z,101168.63
2022-10-17T04:35:24.028Z,101167.66
2022-10-17T04:38:28.588Z,101165.09
2022-10-17T04:41:31.524Z,101161.59
2022-10-17T04:44:35.627Z,101159.88
2022-10-17T04:47:38.314Z,101159.09
2022-10-17T04:50:42.383Z,101158.25
2022-10-17T04:53:45.421Z,101161.88
2022-10-17T04:56:48.677Z,101154.72
2022-10-17T04:59:51.461Z,101162.72
2022-10-17T05:02:54.973Z,101165.47
2022-10-17T05:05:59.058Z,101161.88
2022-10-17T05:09:01.675Z,101173.25
2022-10-17T05:12:06.708Z,101179.38
2022-10-17T05:15:12.168Z,101179.25
2022-10-17T05:18:14.869Z,101184.59
2022-10-17T05:21:29.659Z,101186.28
2022-10-17T05:24:32.308Z,101183.72
2022-10-17T05:27:35.008Z,101185.53
2022-10-17T05:30:37.747Z,101178.41
2022-10-17T05:33:40.844Z,101180.13
2022-10-17T05:36:44.843Z,101187.25
2022-10-17T05:39:50.683Z,101200.47
2022-10-17T05:42:54.403Z,101216.44
2022-10-17T05:45:57.575Z,101208.44
2022-10-17T05:49:00.258Z,101221.66
2022-10-17T05:52:04.327Z,101229.53
2022-10-17T05:55:07.579Z,101234.59
2022-10-17T05:58:17.718Z,101238.56
2022-10-17T06:01:25.559Z,101246.78
2022-10-17T06:04:28.782Z,101246.88
2022-10-17T06:07:32.791Z,101251.25
2022-10-17T06:10:35.454Z,101249.44
2022-10-17T06:13:38.203Z,101256.63
2022-10-17T06:16:40.989Z,101258.06
2022-10-17T06:19:44.789Z,101255.41
2022-10-17T06:22:49.335Z,101258.88
2022-10-17T06:25:52.103Z,101250.88
2022-10-17T06:28:55.237Z,101246.41
2022-10-17T06:31:57.920Z,101244.59
2022-10-17T06:35:00.968Z,101250.66
2022-10-17T06:38:05.937Z,101241.06
2022-10-17T06:41:09.955Z,101233.72
2022-10-17T06:44:13.198Z,101233.72
2022-10-17T06:47:19.234Z,101223.06
2022-10-17T06:50:22.841Z,101208.78
2022-10-17T06:53:28.546Z,101199.09
2022-10-17T06:56:31.235Z,101188.34
2022-10-17T06:59:33.966Z,101176.31
2022-10-17T07:02:36.904Z,101183.06
2022-10-17T07:05:39.508Z,101185.44
2022-10-17T07:08:45.140Z,101186.59
2022-10-17T07:11:47.742Z,101195.91
2022-10-17T07:14:50.602Z,101213.91
2022-10-17T07:17:53.252Z,101213.13
2022-10-17T07:20:56.356Z,101213.13
2022-10-17T07:24:00.394Z,101202.47
2022-10-17T07:27:03.029Z,101198.22
2022-10-17T07:30:06.286Z,101201.72
2022-10-17T07:33:09.071Z,101198.09
2022-10-17T07:36:12.239Z,101181.25
2022-10-17T07:39:16.461Z,101182.91
2022-10-17T07:42:19.113Z,101185.56
2022-10-17T07:45:23.708Z,101183.53
2022-10-17T07:48:26.889Z,101173.72
2022-10-17T07:51:29.511Z,101172.03
2022-10-17T07:54:33.546Z,101174.22
2022-10-17T07:57:36.211Z,101177.03
2022-10-17T08:00:38.957Z,101175.75
2022-10-17T08:03:41.941Z,101171.44
2022-10-17T08:06:44.637Z,101174.09
2022-10-17T08:09:48.878Z,101182.09
2022-10-17T08:12:51.637Z,101182.97
2022-10-17T08:15:54.292Z,101184.78
2022-10-17T08:18:57.048Z,101178.50
2022-10-17T08:22:01.303Z,101183.84
2022-10-17T08:25:05.628Z,101195.34
2022-10-17T08:31:18.208Z,101201.53
2022-10-17T08:34:20.941Z,101196.22
2022-10-17T08:37:23.725Z,101205.16
2022-10-17T08:40:28.998Z,101193.53
2022-10-17T08:43:49.294Z,101193.56
2022-10-17T08:46:54.803Z,101184.25
2022-10-17T08:49:59.508Z,101188.53
2022-10-17T08:53:05.064Z,101187.06
2022-10-17T08:56:19.931Z,101191.53
2022-10-17T08:59:28.206Z,101190.28
2022-10-17T09:02:40.867Z,101178.66
2022-10-17T09:05:47.384Z,101177.28
2022-10-17T09:09:15.254Z,101164.25
2022-10-17T09:12:23.264Z,101162.44
2022-10-17T09:15:41.862Z,101156.75
2022-10-17T09:18:48.466Z,101153.69
2022-10-17T09:21:53.258Z,101149.44
2022-10-17T09:24:58.305Z,101145.91
2022-10-17T09:28:05.463Z,101140.75
2022-10-17T09:31:12.935Z,101138.97
2022-10-17T09:34:15.999Z,101144.31
2022-10-17T09:37:19.039Z,101157.63
2022-10-17T09:40:27.436Z,101160.09
2022-10-17T09:43:31.538Z,101153.38
2022-10-17T09:46:37.808Z,101144.59
2022-10-17T09:49:41.400Z,101146.22
2022-10-17T09:52:47.728Z,101141.22
2022-10-17T09:55:52.483Z,101138.84
2022-10-17T09:58:58.599Z,101142.38
2022-10-17T10:02:11.661Z,101128.09
2022-10-17T10:05:17.208Z,101123.59
2022-10-17T10:08:20.573Z,101125.31
2022-10-17T10:11:24.434Z,101131.94
2022-10-17T10:14:33.464Z,101132.91
2022-10-17T10:17:38.269Z,101131.28
2022-10-17T10:20:41.762Z,101124.25
2022-10-17T10:23:45.425Z,101121.69
2022-10-17T10:26:49.701Z,101124.66
2022-10-17T10:29:54.255Z,101121.25
2022-10-17T10:32:57.906Z,101117.22
2022-10-17T10:36:03.356Z,101119.16
2022-10-17T10:39:06.387Z,101108.44
2022-10-17T10:42:18.179Z,101104.91
2022-10-17T10:45:43.354Z,101094.16
2022-10-17T10:48:51.787Z,101095.13
2022-10-17T10:51:54.556Z,101086.16
2022-10-17T10:55:01.191Z,101089.91
2022-10-17T10:58:05.099Z,101074.72
2022-10-17T11:01:14.238Z,101087.53
2022-10-17T11:04:27.340Z,101096.19
2022-10-17T11:07:33.007Z,101081.13
2022-10-17T11:10:39.010Z,101088.59
2022-10-17T11:13:44.599Z,101080.28
2022-10-17T11:16:50.728Z,101102.38
2022-10-17T11:19:57.949Z,101098.66
2022-10-17T11:23:04.167Z,101087.97
2022-10-17T11:26:08.291Z,101081.34
2022-10-17T11:29:12.171Z,101076.66
2022-10-17T11:32:20.704Z,101081.78
2022-10-17T11:35:26.558Z,101089.38
2022-10-17T11:38:34.364Z,101092.16
2022-10-17T11:41:40.247Z,101095.34
2022-10-17T11:44:44.668Z,101081.34
2022-10-17T11:47:51.524Z,101086.47
2022-10-17T11:54:25.508Z,101075.59
2022-10-17T11:57:42.229Z,101071.94
2022-10-17T12:04:14.290Z,101066.59
2022-10-17T12:07:20.824Z,101072.69
2022-10-17T12:10:29.947Z,101065.41
2022-10-17T12:13:48.885Z,101064.66
2022-10-17T12:16:52.025Z,101058.16
2022-10-17T12:20:16.053Z,101057.94
2022-10-17T12:23:23.187Z,101055.94
2022-10-17T12:26:27.294Z,101041.28
2022-10-17T12:29:30.857Z,101037.94
2022-10-17T12:32:46.988Z,101037.63
2022-10-17T12:36:11.460Z,101032.53
2022-10-17T12:39:33.013Z,101022.28
2022-10-17T12:42:59.520Z,101037.53
2022-10-17T12:46:04.122Z,101034.88
2022-10-17T12:49:21.215Z,101028.84
2022-10-17T12:52:25.166Z,101026.84
2022-10-17T12:55:28.073Z,101014.69
2022-10-17T12:58:32.052Z,101020.06
2022-10-17T13:01:38.080Z,101014.28
2022-10-17T13:04:43.650Z,101006.84
2022-10-17T13:07:49.627Z,101017.06
2022-10-17T13:10:52.927Z,101015.47
2022-10-17T13:13:57.217Z,101021.84
2022-10-17T13:17:01.989Z,101017.22
2022-10-17T13:20:04.913Z,101021.31
2022-10-17T13:23:07.643Z,101025.81
2022-10-17T13:26:20.057Z,101024.91
2022-10-17T13:29:25.643Z,101018.00
2022-10-17T13:32:36.957Z,101012.88
2022-10-17T13:35:59.355Z,101010.84
2022-10-17T13:39:12.467Z,101012.25
2022-10-17T13:42:20.496Z,101012.25
2022-10-17T13:45:27.262Z,101009.94
2022-10-17T13:48:32.712Z,101013.66
2022-10-17T13:51:35.419Z,100998.19
2022-10-17T13:54:40.270Z,100998.66
2022-10-17T13:57:43.176Z,101006.22
2022-10-17T14:00:46.482Z,100999.56
2022-10-17T14:04:02.187Z,101000.66
2022-10-17T14:07:20.284Z,101002.25
2022-10-17T14:10:24.296Z,100996.00
2022-10-17T14:13:28.228Z,100999.34
2022-10-17T14:16:36.406Z,101007.56
2022-10-17T14:19:40.496Z,101001.91
2022-10-17T14:22:50.437Z,101009.91
2022-10-17T14:26:05.411Z,101010.47
2022-10-17T14:29:24.257Z,101016.75
2022-10-17T14:32:27.662Z,101020.91
2022-10-17T14:35:41.557Z,101021.78
2022-10-17T14:38:48.698Z,101017.69
2022-10-17T14:41:52.260Z,101018.22
2022-10-17T14:44:55.798Z,101013.53
2022-10-17T14:48:02.528Z,101002.75
2022-10-17T14:51:11.257Z,101005.41
2022-10-17T14:54:25.363Z,101016.38
2022-10-17T14:57:29.705Z,101016.47
2022-10-17T15:00:32.398Z,101017.69
2022-10-17T15:03:35.286Z,101009.75
2022-10-17T15:06:40.617Z,101012.34
2022-10-17T15:09:43.551Z,101011.25
2022-10-17T15:12:52.091Z,101002.97
2022-10-17T15:16:02.637Z,101003.09
2022-10-17T15:19:05.312Z,100998.47
2022-10-17T15:22:10.185Z,100999.31
2022-10-17T15:25:12.827Z,100995.59
2022-10-17T15:28:15.524Z,100997.16
2022-10-17T15:31:18.971Z,101002.47
2022-10-17T15:34:21.713Z,101006.38
2022-10-17T15:37:26.575Z,101006.38
2022-10-17T15:40:30.074Z,100984.81
2022-10-17T15:43:32.700Z,100990.28
2022-10-17T15:46:36.488Z,100981.56
2022-10-17T15:49:39.227Z,100982.94
2022-10-17T15:52:43.406Z,100991.25
2022-10-17T15:55:46.156Z,100988.56
2022-10-17T15:58:48.956Z,100983.66
2022-10-17T16:01:51.823Z,100972.28
2022-10-17T16:04:54.648Z,100976.78
2022-10-17T16:07:58.725Z,100980.38
2022-10-17T16:11:01.417Z,100979.88
2022-10-17T16:14:05.009Z,100989.13
2022-10-17T16:17:07.763Z,100997.97
2022-10-17T16:20:11.113Z,101003.97
2022-10-17T16:23:15.560Z,100998.38
2022-10-17T16:26:18.274Z,100981.13
2022-10-17T16:29:21.332Z,100989.38
2022-10-17T16:32:24.074Z,100988.78
2022-10-17T16:35:28.927Z,100987.00
2022-10-17T16:38:36.123Z,100991.59
2022-10-17T16:41:40.101Z,100985.31
2022-10-17T16:44:42.809Z,100996.47
2022-10-17T16:47:45.473Z,101006.69
2022-10-17T16:50:48.183Z,101000.59
2022-10-17T16:53:54.471Z,100991.13
2022-10-17T16:56:57.788Z,100983.31
2022-10-17T17:00:00.498Z,100979.31
2022-10-17T17:03:03.211Z,100972.66
2022-10-17T17:06:06.624Z,100982.13
2022-10-17T17:09:11.162Z,100980.44
2022-10-17T17:12:14.045Z,100979.91
2022-10-17T17:15:16.863Z,100972.25
2022-10-17T17:18:19.517Z,100985.13
2022-10-17T17:21:22.165Z,100989.44
2022-10-17T17:24:26.392Z,100990.03
2022-10-17T17:27:29.910Z,100995.97
2022-10-17T17:30:33.674Z,100997.41
2022-10-17T17:33:37.799Z,100992.06
2022-10-17T17:36:40.561Z,100997.31
2022-10-17T17:39:44.924Z,101001.34
2022-10-17T17:42:47.651Z,101001.56
2022-10-17T17:45:50.457Z,100999.13
2022-10-17T17:48:53.940Z,100993.66
2022-10-17T17:51:56.706Z,101002.66
2022-10-17T17:55:00.778Z,101000.97
2022-10-17T17:58:03.861Z,100992.81
2022-10-17T18:01:12.189Z,100987.00
2022-10-17T18:04:17.369Z,100975.34
2022-10-17T18:07:20.088Z,100960.41
2022-10-17T18:10:24.134Z,100967.69
2022-10-17T18:13:26.912Z,100960.75
2022-10-17T18:16:30.139Z,100971.00
2022-10-17T18:19:32.874Z,100971.94
2022-10-17T18:22:36.717Z,100965.84
2022-10-17T18:25:41.209Z,100958.56
2022-10-17T18:28:45.108Z,100964.38
2022-10-17T18:31:47.893Z,100960.25
2022-10-17T18:34:51.047Z,100957.09
2022-10-17T18:37:56.495Z,100957.59
2022-10-17T18:41:08.931Z,100959.13
2022-10-17T18:44:12.675Z,100967.91
2022-10-17T18:47:15.657Z,100958.78
2022-10-17T18:50:18.424Z,100954.28
2022-10-17T18:53:21.141Z,100949.06
2022-10-17T18:56:25.299Z,100953.09
2022-10-17T18:59:28.204Z,100959.63
2022-10-17T19:02:34.340Z,100964.00
2022-10-17T19:05:40.011Z,100980.91
2022-10-17T19:08:43.269Z,100982.00
2022-10-17T19:11:47.381Z,100981.53
2022-10-17T19:14:50.899Z,100982.72
2022-10-17T19:17:53.606Z,100993.41
2022-10-17T19:20:56.207Z,100994.84
2022-10-17T19:23:59.684Z,100990.63
2022-10-17T19:27:05.172Z,100987.22
2022-10-17T19:30:08.719Z,100989.13
2022-10-17T19:33:11.387Z,100991.31
2022-10-17T19:36:14.578Z,100994.94
2022-10-17T19:39:18.067Z,100997.53
2022-10-17T19:42:22.161Z,100988.16
2022-10-17T19:45:24.869Z,100986.44
2022-10-17T19:48:27.778Z,100984.75
2022-10-17T19:51:30.522Z,100978.44
2022-10-17T19:54:33.399Z,100976.91
2022-10-17T19:57:37.447Z,100968.91
2022-10-17T20:00:40.213Z,100964.53
2022-10-17T20:03:42.977Z,100963.56
2022-10-17T20:06:45.631Z,100966.47
2022-10-17T20:09:48.317Z,100969.63
2022-10-17T20:12:52.365Z,100972.66
2022-10-17T20:15:55.277Z,100968.28
2022-10-17T20:18:59.214Z,100969.75
2022-10-17T20:22:01.957Z,100970.59
2022-10-17T20:25:05.432Z,100971.88
2022-10-17T20:28:09.666Z,100969.63
2022-10-17T20:31:13.180Z,100974.13
2022-10-17T20:34:17.067Z,100973.63
2022-10-17T20:37:19.680Z,100971.31
2022-10-17T20:40:34.763Z,100969.47
2022-10-17T20:43:39.407Z,100967.16
2022-10-17T20:46:48.695Z,100960.88
2022-10-17T20:50:00.297Z,100967.06
2022-10-17T20:53:31.362Z,100959.13
2022-10-17T20:56:26.439Z,100952.09
2022-10-17T20:59:30.789Z,100953.78
2022-10-17T21:02:33.637Z,100951.88
2022-10-17T21:05:38.950Z,100951.03
2022-10-17T21:08:41.690Z,100965.31
2022-10-17T21:11:44.429Z,100951.03
2022-10-17T21:14:48.563Z,100958.19
2022-10-17T21:17:51.280Z,100952.09
2022-10-17T21:20:53.984Z,100952.09
2022-10-17T21:23:57.848Z,100960.09
2022-10-17T21:27:00.738Z,100961.06
2022-10-17T21:30:05.254Z,100956.06
2022-10-17T21:33:08.073Z,100952.56
2022-10-17T21:36:11.241Z,100955.97
2022-10-17T21:39:14.927Z,100950.63
2022-10-17T21:42:19.215Z,100954.25
2022-10-17T21:45:25.856Z,100949.88
2022-10-17T21:48:28.875Z,100955.34
2022-10-17T21:51:31.571Z,100954.25
2022-10-17T21:54:34.240Z,100944.44
2022-10-17T21:57:36.945Z,100959.59
2022-10-17T22:00:40.960Z,100958.75
2022-10-17T22:03:46.750Z,100959.59
2022-10-17T22:06:52.313Z,100948.19
2022-10-17T22:09:55.047Z,100949.53
2022-10-17T22:12:57.729Z,100941.13
2022-10-17T22:16:01.922Z,100947.22
2022-10-17T22:19:06.474Z,100941.88
2022-10-17T22:22:09.912Z,100938.72
2022-10-17T22:25:12.550Z,100929.22
2022-10-17T22:28:15.263Z,100937.22
2022-10-17T22:31:19.330Z,100932.72
2022-10-17T22:34:22.023Z,100930.06
2022-10-17T22:37:24.761Z,100945.00
2022-10-17T22:40:27.384Z,100941.84
2022-10-17T22:43:30.100Z,100942.31
2022-10-17T22:46:34.191Z,100950.91
2022-10-17T22:49:36.908Z,100936.38
2022-10-17T22:52:39.624Z,100933.19
2022-10-17T22:55:42.256Z,100937.34
2022-10-17T22:58:44.992Z,100931.03
2022-10-17T23:01:49.057Z,100937.34
2022-10-17T23:04:51.778Z,100936.50
2022-10-17T23:07:54.456Z,100933.94
2022-10-17T23:10:57.210Z,100937.47
2022-10-17T23:13:59.932Z,100935.53
2022-10-17T23:17:05.021Z,100938.94
2022-10-17T23:20:08.336Z,100936.97
2022-10-17T23:23:11.048Z,100939.56
2022-10-17T23:26:14.371Z,100940.41
2022-10-17T23:29:17.026Z,100927.78
2022-10-17T23:32:21.656Z,100921.22
2022-10-17T23:35:25.339Z,100914.88
2022-10-17T23:38:28.065Z,100913.06
2022-10-17T23:41:30.708Z,100900.94
2022-10-17T23:44:33.414Z,100905.19
2022-10-17T23:47:37.492Z,100906.03
2022-10-17T23:50:40.216Z,100899.72
2022-10-17T23:53:42.921Z,100901.31
2022-10-17T23:56:45.566Z,100902.25
2022-10-17T23:59:48.275Z,100891.94
